sensor_id;sensor_type;location;lat;lon;timestamp;P1;durP1;ratioP1;P2;durP2;ratioP2
62258;SDS011;48241;48.824;10.102;2022-08-20T00:00:17;18.73;;;16.88;;
62258;SDS011;48241;48.824;10.102;2022-08-20T00:02:45;20.27;;;17.17;;
62258;SDS011;48241;48.824;10.102;2022-08-20T00:05:20;18.85;;;16.85;;
62258;SDS011;48241;48.824;10.102;2022-08-20T00:07:47;19.02;;;16.30;;
62258;SDS011;48241;48.824;10.102;2022-08-20T00:10:13;17.75;;;15.77;;
62258;SDS011;48241;48.824;10.102;2022-08-20T00:12:46;18.42;;;15.63;;
62258;SDS011;48241;48.824;10.102;2022-08-20T00:15:13;18.20;;;16.13;;
62258;SDS011;48241;48.824;10.102;2022-08-20T00:17:40;17.70;;;15.85;;
62258;SDS011;48241;48.824;10.102;2022-08-20T00:20:08;16.63;;;14.93;;
62258;SDS011;48241;48.824;10.102;2022-08-20T00:22:36;17.02;;;15.23;;
62258;SDS011;48241;48.824;10.102;2022-08-20T00:25:05;19.65;;;15.60;;
62258;SDS011;48241;48.824;10.102;2022-08-20T00:27:33;18.58;;;16.42;;
62258;SDS011;48241;48.824;10.102;2022-08-20T00:30:00;18.30;;;16.40;;
62258;SDS011;48241;48.824;10.102;2022-08-20T00:32:25;22.75;;;15.75;;
62258;SDS011;48241;48.824;10.102;2022-08-20T00:34:51;18.17;;;15.73;;
62258;SDS011;48241;48.824;10.102;2022-08-20T00:37:17;17.30;;;15.48;;
62258;SDS011;48241;48.824;10.102;2022-08-20T00:39:42;18.02;;;15.52;;
62258;SDS011;48241;48.824;10.102;2022-08-20T00:42:08;19.25;;;15.85;;
62258;SDS011;48241;48.824;10.102;2022-08-20T00:44:34;17.67;;;15.52;;
62258;SDS011;48241;48.824;10.102;2022-08-20T00:47:00;18.48;;;14.90;;
62258;SDS011;48241;48.824;10.102;2022-08-20T00:49:29;17.73;;;15.68;;
62258;SDS011;48241;48.824;10.102;2022-08-20T00:51:58;18.42;;;15.40;;
62258;SDS011;48241;48.824;10.102;2022-08-20T00:54:36;17.02;;;15.20;;
62258;SDS011;48241;48.824;10.102;2022-08-20T00:57:25;18.30;;;15.80;;
62258;SDS011;48241;48.824;10.102;2022-08-20T00:59:55;17.27;;;15.38;;
62258;SDS011;48241;48.824;10.102;2022-08-20T01:02:23;18.58;;;14.93;;
62258;SDS011;48241;48.824;10.102;2022-08-20T01:04:52;19.05;;;15.52;;
62258;SDS011;48241;48.824;10.102;2022-08-20T01:07:22;18.40;;;16.35;;
62258;SDS011;48241;48.824;10.102;2022-08-20T01:09:57;18.15;;;16.40;;
62258;SDS011;48241;48.824;10.102;2022-08-20T01:12:25;18.92;;;16.90;;
62258;SDS011;48241;48.824;10.102;2022-08-20T01:14:52;18.75;;;16.85;;
62258;SDS011;48241;48.824;10.102;2022-08-20T01:17:19;19.10;;;17.08;;
62258;SDS011;48241;48.824;10.102;2022-08-20T01:19:52;18.77;;;16.85;;
62258;SDS011;48241;48.824;10.102;2022-08-20T01:22:27;17.83;;;16.02;;
62258;SDS011;48241;48.824;10.102;2022-08-20T01:28:18;18.90;;;16.92;;
62258;SDS011;48241;48.824;10.102;2022-08-20T01:30:49;19.07;;;16.17;;
62258;SDS011;48241;48.824;10.102;2022-08-20T01:33:18;18.05;;;15.85;;
62258;SDS011;48241;48.824;10.102;2022-08-20T01:35:45;20.05;;;16.60;;
62258;SDS011;48241;48.824;10.102;2022-08-20T01:38:11;17.80;;;16.00;;
62258;SDS011;48241;48.824;10.102;2022-08-20T01:40:43;18.65;;;16.52;;
62258;SDS011;48241;48.824;10.102;2022-08-20T01:43:14;18.92;;;15.40;;
62258;SDS011;48241;48.824;10.102;2022-08-20T01:45:40;21.75;;;17.48;;
62258;SDS011;48241;48.824;10.102;2022-08-20T01:48:06;18.13;;;15.90;;
62258;SDS011;48241;48.824;10.102;2022-08-20T01:50:32;19.20;;;17.23;;
62258;SDS011;48241;48.824;10.102;2022-08-20T01:53:03;18.90;;;16.90;;
62258;SDS011;48241;48.824;10.102;2022-08-20T01:55:36;20.40;;;16.55;;
62258;SDS011;48241;48.824;10.102;2022-08-20T01:58:02;18.42;;;15.85;;
62258;SDS011;48241;48.824;10.102;2022-08-20T02:00:28;17.85;;;15.32;;
62258;SDS011;48241;48.824;10.102;2022-08-20T02:02:54;18.05;;;14.35;;
62258;SDS011;48241;48.824;10.102;2022-08-20T02:05:19;18.48;;;13.80;;
62258;SDS011;48241;48.824;10.102;2022-08-20T02:07:45;15.98;;;14.27;;
62258;SDS011;48241;48.824;10.102;2022-08-20T02:10:12;14.98;;;13.10;;
62258;SDS011;48241;48.824;10.102;2022-08-20T02:12:40;14.38;;;12.55;;
62258;SDS011;48241;48.824;10.102;2022-08-20T02:15:07;12.07;;;10.88;;
62258;SDS011;48241;48.824;10.102;2022-08-20T02:17:34;12.75;;;10.57;;
62258;SDS011;48241;48.824;10.102;2022-08-20T02:20:03;11.55;;;10.23;;
62258;SDS011;48241;48.824;10.102;2022-08-20T02:22:52;11.27;;;10.05;;
62258;SDS011;48241;48.824;10.102;2022-08-20T02:25:20;10.70;;;9.60;;
62258;SDS011;48241;48.824;10.102;2022-08-20T02:27:48;12.15;;;9.85;;
62258;SDS011;48241;48.824;10.102;2022-08-20T02:30:29;10.85;;;9.75;;
62258;SDS011;48241;48.824;10.102;2022-08-20T02:33:00;11.63;;;9.38;;
62258;SDS011;48241;48.824;10.102;2022-08-20T02:35:28;10.88;;;9.57;;
62258;SDS011;48241;48.824;10.102;2022-08-20T02:37:54;9.13;;;8.10;;
62258;SDS011;48241;48.824;10.102;2022-08-20T02:40:21;9.55;;;8.23;;
62258;SDS011;48241;48.824;10.102;2022-08-20T02:42:50;9.90;;;8.85;;
62258;SDS011;48241;48.824;10.102;2022-08-20T02:45:16;11.07;;;7.93;;
62258;SDS011;48241;48.824;10.102;2022-08-20T02:47:43;9.63;;;8.57;;
62258;SDS011;48241;48.824;10.102;2022-08-20T02:50:11;9.05;;;8.15;;
62258;SDS011;48241;48.824;10.102;2022-08-20T02:52:40;12.68;;;9.23;;
62258;SDS011;48241;48.824;10.102;2022-08-20T02:55:07;9.90;;;8.80;;
62258;SDS011;48241;48.824;10.102;2022-08-20T02:57:33;9.23;;;7.80;;
62258;SDS011;48241;48.824;10.102;2022-08-20T02:59:59;9.80;;;7.85;;
62258;SDS011;48241;48.824;10.102;2022-08-20T03:02:26;9.02;;;7.72;;
62258;SDS011;48241;48.824;10.102;2022-08-20T03:04:51;9.25;;;8.13;;
62258;SDS011;48241;48.824;10.102;2022-08-20T03:07:17;9.68;;;7.55;;
62258;SDS011;48241;48.824;10.102;2022-08-20T03:09:43;11.80;;;8.05;;
62258;SDS011;48241;48.824;10.102;2022-08-20T03:12:09;9.55;;;7.28;;
62258;SDS011;48241;48.824;10.102;2022-08-20T03:14:35;9.90;;;7.25;;
62258;SDS011;48241;48.824;10.102;2022-08-20T03:17:01;10.90;;;8.15;;
62258;SDS011;48241;48.824;10.102;2022-08-20T03:19:27;10.63;;;7.70;;
62258;SDS011;48241;48.824;10.102;2022-08-20T03:21:53;9.73;;;8.73;;
62258;SDS011;48241;48.824;10.102;2022-08-20T03:24:19;11.20;;;8.82;;
62258;SDS011;48241;48.824;10.102;2022-08-20T03:26:45;8.45;;;7.65;;
62258;SDS011;48241;48.824;10.102;2022-08-20T03:29:11;10.00;;;8.15;;
62258;SDS011;48241;48.824;10.102;2022-08-20T03:31:40;10.40;;;8.70;;
62258;SDS011;48241;48.824;10.102;2022-08-20T03:34:09;9.40;;;8.40;;
62258;SDS011;48241;48.824;10.102;2022-08-20T03:36:37;10.45;;;8.15;;
62258;SDS011;48241;48.824;10.102;2022-08-20T03:39:04;9.57;;;7.90;;
62258;SDS011;48241;48.824;10.102;2022-08-20T03:41:31;8.52;;;7.55;;
62258;SDS011;48241;48.824;10.102;2022-08-20T03:43:57;9.15;;;8.25;;
62258;SDS011;48241;48.824;10.102;2022-08-20T03:46:23;11.82;;;8.15;;
62258;SDS011;48241;48.824;10.102;2022-08-20T03:51:32;10.80;;;7.28;;
62258;SDS011;48241;48.824;10.102;2022-08-20T04:00:31;5.65;;;4.80;;
62258;SDS011;48241;48.824;10.102;2022-08-20T04:03:00;4.80;;;4.40;;
62258;SDS011;48241;48.824;10.102;2022-08-20T04:05:27;4.93;;;4.50;;
62258;SDS011;48241;48.824;10.102;2022-08-20T04:07:54;5.13;;;4.63;;
62258;SDS011;48241;48.824;10.102;2022-08-20T04:10:24;5.80;;;4.55;;
62258;SDS011;48241;48.824;10.102;2022-08-20T04:13:00;6.35;;;4.18;;
62258;SDS011;48241;48.824;10.102;2022-08-20T04:18:31;5.05;;;4.63;;
62258;SDS011;48241;48.824;10.102;2022-08-20T04:20:58;4.30;;;3.90;;
62258;SDS011;48241;48.824;10.102;2022-08-20T04:23:23;5.50;;;4.22;;
62258;SDS011;48241;48.824;10.102;2022-08-20T04:25:49;5.55;;;4.55;;
62258;SDS011;48241;48.824;10.102;2022-08-20T04:28:16;5.00;;;4.40;;
62258;SDS011;48241;48.824;10.102;2022-08-20T04:30:51;6.63;;;4.72;;
62258;SDS011;48241;48.824;10.102;2022-08-20T04:33:18;5.90;;;4.53;;
62258;SDS011;48241;48.824;10.102;2022-08-20T04:35:45;5.03;;;4.15;;
62258;SDS011;48241;48.824;10.102;2022-08-20T04:38:12;5.35;;;4.30;;
62258;SDS011;48241;48.824;10.102;2022-08-20T04:40:40;7.05;;;4.38;;
62258;SDS011;48241;48.824;10.102;2022-08-20T04:43:18;4.85;;;4.10;;
62258;SDS011;48241;48.824;10.102;2022-08-20T04:45:48;5.90;;;4.60;;
62258;SDS011;48241;48.824;10.102;2022-08-20T04:48:16;4.30;;;3.90;;
62258;SDS011;48241;48.824;10.102;2022-08-20T04:50:43;6.57;;;4.35;;
62258;SDS011;48241;48.824;10.102;2022-08-20T04:53:11;4.70;;;4.20;;
62258;SDS011;48241;48.824;10.102;2022-08-20T04:55:40;5.20;;;3.97;;
62258;SDS011;48241;48.824;10.102;2022-08-20T04:58:08;5.65;;;4.47;;
62258;SDS011;48241;48.824;10.102;2022-08-20T05:00:38;5.25;;;3.88;;
62258;SDS011;48241;48.824;10.102;2022-08-20T05:03:04;4.75;;;4.25;;
62258;SDS011;48241;48.824;10.102;2022-08-20T05:05:33;5.15;;;4.28;;
62258;SDS011;48241;48.824;10.102;2022-08-20T05:07:59;4.95;;;4.20;;
62258;SDS011;48241;48.824;10.102;2022-08-20T05:10:26;5.35;;;4.10;;
62258;SDS011;48241;48.824;10.102;2022-08-20T05:12:52;5.35;;;4.05;;
62258;SDS011;48241;48.824;10.102;2022-08-20T05:15:17;5.57;;;4.13;;
62258;SDS011;48241;48.824;10.102;2022-08-20T05:17:43;4.18;;;3.72;;
62258;SDS011;48241;48.824;10.102;2022-08-20T05:20:10;5.30;;;3.95;;
62258;SDS011;48241;48.824;10.102;2022-08-20T05:22:40;7.38;;;3.90;;
62258;SDS011;48241;48.824;10.102;2022-08-20T05:25:09;6.22;;;3.70;;
62258;SDS011;48241;48.824;10.102;2022-08-20T05:27:35;4.13;;;3.65;;
62258;SDS011;48241;48.824;10.102;2022-08-20T05:30:02;5.40;;;4.05;;
62258;SDS011;48241;48.824;10.102;2022-08-20T05:32:32;4.00;;;3.70;;
62258;SDS011;48241;48.824;10.102;2022-08-20T05:34:59;3.83;;;3.50;;
62258;SDS011;48241;48.824;10.102;2022-08-20T05:37:28;4.90;;;4.05;;
62258;SDS011;48241;48.824;10.102;2022-08-20T05:39:55;4.25;;;3.67;;
62258;SDS011;48241;48.824;10.102;2022-08-20T05:42:21;3.95;;;3.58;;
62258;SDS011;48241;48.824;10.102;2022-08-20T05:44:47;4.38;;;3.97;;
62258;SDS011;48241;48.824;10.102;2022-08-20T05:47:12;4.30;;;3.90;;
62258;SDS011;48241;48.824;10.102;2022-08-20T05:49:38;5.80;;;3.95;;
62258;SDS011;48241;48.824;10.102;2022-08-20T05:52:04;4.07;;;3.67;;
62258;SDS011;48241;48.824;10.102;2022-08-20T05:54:30;5.68;;;3.80;;
62258;SDS011;48241;48.824;10.102;2022-08-20T05:56:56;4.28;;;3.83;;
62258;SDS011;48241;48.824;10.102;2022-08-20T05:59:22;5.57;;;3.55;;
62258;SDS011;48241;48.824;10.102;2022-08-20T06:01:49;4.82;;;4.05;;
62258;SDS011;48241;48.824;10.102;2022-08-20T06:04:15;4.43;;;4.03;;
62258;SDS011;48241;48.824;10.102;2022-08-20T06:06:51;4.65;;;3.85;;
62258;SDS011;48241;48.824;10.102;2022-08-20T06:09:27;4.22;;;3.83;;
62258;SDS011;48241;48.824;10.102;2022-08-20T06:11:53;4.97;;;4.10;;
62258;SDS011;48241;48.824;10.102;2022-08-20T06:14:19;5.07;;;4.38;;
62258;SDS011;48241;48.824;10.102;2022-08-20T06:16:45;4.68;;;4.28;;
62258;SDS011;48241;48.824;10.102;2022-08-20T06:19:11;6.00;;;4.03;;
62258;SDS011;48241;48.824;10.102;2022-08-20T06:21:36;4.30;;;4.00;;
62258;SDS011;48241;48.824;10.102;2022-08-20T06:24:03;4.40;;;4.00;;
62258;SDS011;48241;48.824;10.102;2022-08-20T06:26:30;3.90;;;3.58;;
62258;SDS011;48241;48.824;10.102;2022-08-20T06:28:58;5.55;;;3.72;;
62258;SDS011;48241;48.824;10.102;2022-08-20T06:31:24;4.03;;;3.38;;
62258;SDS011;48241;48.824;10.102;2022-08-20T06:33:51;4.05;;;3.60;;
62258;SDS011;48241;48.824;10.102;2022-08-20T06:36:16;3.60;;;2.88;;
62258;SDS011;48241;48.824;10.102;2022-08-20T06:38:42;3.90;;;3.50;;
62258;SDS011;48241;48.824;10.102;2022-08-20T06:41:09;3.70;;;3.33;;
62258;SDS011;48241;48.824;10.102;2022-08-20T06:43:34;4.07;;;3.42;;
62258;SDS011;48241;48.824;10.102;2022-08-20T06:46:00;3.63;;;3.33;;
62258;SDS011;48241;48.824;10.102;2022-08-20T06:48:26;3.60;;;3.30;;
62258;SDS011;48241;48.824;10.102;2022-08-20T06:50:52;3.70;;;3.40;;
62258;SDS011;48241;48.824;10.102;2022-08-20T06:53:18;3.97;;;3.58;;
62258;SDS011;48241;48.824;10.102;2022-08-20T06:55:46;3.92;;;3.40;;
62258;SDS011;48241;48.824;10.102;2022-08-20T06:58:15;3.70;;;3.40;;
62258;SDS011;48241;48.824;10.102;2022-08-20T07:00:44;3.85;;;3.55;;
62258;SDS011;48241;48.824;10.102;2022-08-20T07:03:10;4.18;;;3.63;;
62258;SDS011;48241;48.824;10.102;2022-08-20T07:05:38;3.95;;;3.63;;
62258;SDS011;48241;48.824;10.102;2022-08-20T07:08:07;4.45;;;3.60;;
62258;SDS011;48241;48.824;10.102;2022-08-20T07:10:34;5.32;;;4.10;;
62258;SDS011;48241;48.824;10.102;2022-08-20T07:12:59;4.95;;;3.72;;
62258;SDS011;48241;48.824;10.102;2022-08-20T07:15:25;5.25;;;3.90;;
62258;SDS011;48241;48.824;10.102;2022-08-20T07:17:54;5.07;;;4.00;;
62258;SDS011;48241;48.824;10.102;2022-08-20T07:20:22;6.07;;;4.25;;
62258;SDS011;48241;48.824;10.102;2022-08-20T07:22:48;5.45;;;4.05;;
62258;SDS011;48241;48.824;10.102;2022-08-20T07:25:14;4.57;;;4.15;;
62258;SDS011;48241;48.824;10.102;2022-08-20T07:27:42;3.95;;;3.58;;
62258;SDS011;48241;48.824;10.102;2022-08-20T07:30:10;4.57;;;4.05;;
62258;SDS011;48241;48.824;10.102;2022-08-20T07:32:58;3.88;;;3.58;;
62258;SDS011;48241;48.824;10.102;2022-08-20T07:35:24;4.20;;;3.78;;
62258;SDS011;48241;48.824;10.102;2022-08-20T07:37:51;3.80;;;3.50;;
62258;SDS011;48241;48.824;10.102;2022-08-20T07:40:20;5.53;;;3.90;;
62258;SDS011;48241;48.824;10.102;2022-08-20T07:42:48;4.15;;;3.75;;
62258;SDS011;48241;48.824;10.102;2022-08-20T07:45:15;4.75;;;3.47;;
62258;SDS011;48241;48.824;10.102;2022-08-20T07:47:44;3.78;;;3.38;;
62258;SDS011;48241;48.824;10.102;2022-08-20T07:50:11;4.05;;;3.75;;
62258;SDS011;48241;48.824;10.102;2022-08-20T07:52:39;5.25;;;3.88;;
62258;SDS011;48241;48.824;10.102;2022-08-20T07:55:05;4.18;;;3.78;;
62258;SDS011;48241;48.824;10.102;2022-08-20T07:57:33;5.95;;;4.05;;
62258;SDS011;48241;48.824;10.102;2022-08-20T08:00:00;5.00;;;4.07;;
62258;SDS011;48241;48.824;10.102;2022-08-20T08:02:26;4.40;;;4.00;;
62258;SDS011;48241;48.824;10.102;2022-08-20T08:04:52;5.68;;;3.97;;
62258;SDS011;48241;48.824;10.102;2022-08-20T08:07:18;4.45;;;4.05;;
62258;SDS011;48241;48.824;10.102;2022-08-20T08:09:44;5.18;;;4.22;;
62258;SDS011;48241;48.824;10.102;2022-08-20T08:12:11;4.07;;;3.78;;
62258;SDS011;48241;48.824;10.102;2022-08-20T08:14:38;4.90;;;4.50;;
62258;SDS011;48241;48.824;10.102;2022-08-20T08:17:05;4.65;;;4.13;;
62258;SDS011;48241;48.824;10.102;2022-08-20T08:19:34;4.50;;;4.10;;
62258;SDS011;48241;48.824;10.102;2022-08-20T08:22:10;4.70;;;4.30;;
62258;SDS011;48241;48.824;10.102;2022-08-20T08:24:38;4.35;;;3.95;;
62258;SDS011;48241;48.824;10.102;2022-08-20T08:27:06;4.70;;;4.30;;
62258;SDS011;48241;48.824;10.102;2022-08-20T08:29:44;5.57;;;5.00;;
62258;SDS011;48241;48.824;10.102;2022-08-20T08:32:10;4.72;;;4.30;;
62258;SDS011;48241;48.824;10.102;2022-08-20T08:34:36;4.80;;;4.40;;
62258;SDS011;48241;48.824;10.102;2022-08-20T08:37:03;5.90;;;4.60;;
62258;SDS011;48241;48.824;10.102;2022-08-20T08:39:29;10.13;;;4.80;;
62258;SDS011;48241;48.824;10.102;2022-08-20T08:41:56;6.22;;;4.90;;
62258;SDS011;48241;48.824;10.102;2022-08-20T08:44:27;6.43;;;5.63;;
62258;SDS011;48241;48.824;10.102;2022-08-20T08:46:56;5.35;;;4.80;;
62258;SDS011;48241;48.824;10.102;2022-08-20T08:49:25;6.22;;;5.05;;
62258;SDS011;48241;48.824;10.102;2022-08-20T08:51:58;5.22;;;4.72;;
62258;SDS011;48241;48.824;10.102;2022-08-20T08:54:31;6.68;;;4.80;;
62258;SDS011;48241;48.824;10.102;2022-08-20T08:56:59;5.90;;;5.38;;
62258;SDS011;48241;48.824;10.102;2022-08-20T08:59:29;6.40;;;4.90;;
62258;SDS011;48241;48.824;10.102;2022-08-20T09:01:56;5.15;;;4.65;;
62258;SDS011;48241;48.824;10.102;2022-08-20T09:04:34;5.05;;;4.40;;
62258;SDS011;48241;48.824;10.102;2022-08-20T09:07:02;5.20;;;4.50;;
62258;SDS011;48241;48.824;10.102;2022-08-20T09:09:32;4.63;;;4.22;;
62258;SDS011;48241;48.824;10.102;2022-08-20T09:12:09;4.93;;;4.20;;
62258;SDS011;48241;48.824;10.102;2022-08-20T09:14:36;4.40;;;4.00;;
62258;SDS011;48241;48.824;10.102;2022-08-20T09:17:02;4.35;;;4.00;;
62258;SDS011;48241;48.824;10.102;2022-08-20T09:19:29;5.25;;;3.70;;
62258;SDS011;48241;48.824;10.102;2022-08-20T09:21:55;3.58;;;3.28;;
62258;SDS011;48241;48.824;10.102;2022-08-20T09:24:20;2.80;;;2.60;;
62258;SDS011;48241;48.824;10.102;2022-08-20T09:26:46;2.92;;;2.45;;
62258;SDS011;48241;48.824;10.102;2022-08-20T09:29:11;2.80;;;2.60;;
62258;SDS011;48241;48.824;10.102;2022-08-20T09:31:37;3.08;;;2.60;;
62258;SDS011;48241;48.824;10.102;2022-08-20T09:34:03;3.30;;;2.65;;
62258;SDS011;48241;48.824;10.102;2022-08-20T09:36:29;3.45;;;3.10;;
62258;SDS011;48241;48.824;10.102;2022-08-20T09:38:55;6.10;;;3.47;;
62258;SDS011;48241;48.824;10.102;2022-08-20T09:41:20;4.88;;;3.92;;
62258;SDS011;48241;48.824;10.102;2022-08-20T09:43:46;3.85;;;3.40;;
62258;SDS011;48241;48.824;10.102;2022-08-20T09:46:12;4.45;;;4.05;;
62258;SDS011;48241;48.824;10.102;2022-08-20T09:48:37;4.10;;;3.58;;
62258;SDS011;48241;48.824;10.102;2022-08-20T09:51:03;3.92;;;3.53;;
62258;SDS011;48241;48.824;10.102;2022-08-20T09:53:29;3.67;;;3.38;;
62258;SDS011;48241;48.824;10.102;2022-08-20T09:55:54;4.20;;;3.80;;
62258;SDS011;48241;48.824;10.102;2022-08-20T10:00:51;5.75;;;5.25;;
62258;SDS011;48241;48.824;10.102;2022-08-20T10:03:16;5.40;;;4.75;;
62258;SDS011;48241;48.824;10.102;2022-08-20T10:05:42;4.68;;;4.28;;
62258;SDS011;48241;48.824;10.102;2022-08-20T10:08:08;4.75;;;4.35;;
62258;SDS011;48241;48.824;10.102;2022-08-20T10:10:35;4.97;;;3.88;;
62258;SDS011;48241;48.824;10.102;2022-08-20T10:13:01;3.92;;;3.63;;
62258;SDS011;48241;48.824;10.102;2022-08-20T10:15:27;4.03;;;3.72;;
62258;SDS011;48241;48.824;10.102;2022-08-20T10:17:53;3.90;;;3.60;;
62258;SDS011;48241;48.824;10.102;2022-08-20T10:20:21;4.32;;;3.92;;
62258;SDS011;48241;48.824;10.102;2022-08-20T10:22:48;5.35;;;4.00;;
62258;SDS011;48241;48.824;10.102;2022-08-20T10:25:14;3.92;;;3.63;;
62258;SDS011;48241;48.824;10.102;2022-08-20T10:27:40;4.70;;;4.30;;
62258;SDS011;48241;48.824;10.102;2022-08-20T10:30:06;3.75;;;3.38;;
62258;SDS011;48241;48.824;10.102;2022-08-20T10:32:33;4.43;;;3.67;;
62258;SDS011;48241;48.824;10.102;2022-08-20T10:34:59;4.20;;;3.30;;
62258;SDS011;48241;48.824;10.102;2022-08-20T10:37:24;3.30;;;3.00;;
62258;SDS011;48241;48.824;10.102;2022-08-20T10:39:51;3.42;;;3.13;;
62258;SDS011;48241;48.824;10.102;2022-08-20T10:42:17;4.68;;;3.45;;
62258;SDS011;48241;48.824;10.102;2022-08-20T10:44:43;4.25;;;3.85;;
62258;SDS011;48241;48.824;10.102;2022-08-20T10:49:48;3.80;;;3.40;;
62258;SDS011;48241;48.824;10.102;2022-08-20T10:52:15;3.55;;;2.95;;
62258;SDS011;48241;48.824;10.102;2022-08-20T10:54:41;3.63;;;3.00;;
62258;SDS011;48241;48.824;10.102;2022-08-20T10:57:14;3.75;;;3.45;;
62258;SDS011;48241;48.824;10.102;2022-08-20T10:59:42;3.40;;;3.10;;
62258;SDS011;48241;48.824;10.102;2022-08-20T11:02:09;3.17;;;2.88;;
62258;SDS011;48241;48.824;10.102;2022-08-20T11:04:36;3.83;;;3.13;;
62258;SDS011;48241;48.824;10.102;2022-08-20T11:09:51;3.42;;;3.13;;
62258;SDS011;48241;48.824;10.102;2022-08-20T11:12:17;3.42;;;3.13;;
62258;SDS011;48241;48.824;10.102;2022-08-20T11:14:44;3.25;;;3.05;;
62258;SDS011;48241;48.824;10.102;2022-08-20T11:17:11;3.67;;;2.80;;
62258;SDS011;48241;48.824;10.102;2022-08-20T11:19:37;3.83;;;2.90;;
62258;SDS011;48241;48.824;10.102;2022-08-20T11:22:08;3.33;;;3.00;;
62258;SDS011;48241;48.824;10.102;2022-08-20T11:24:34;3.33;;;3.03;;
62258;SDS011;48241;48.824;10.102;2022-08-20T11:27:00;5.07;;;2.95;;
62258;SDS011;48241;48.824;10.102;2022-08-20T11:29:26;3.05;;;2.85;;
62258;SDS011;48241;48.824;10.102;2022-08-20T11:31:52;2.97;;;2.78;;
62258;SDS011;48241;48.824;10.102;2022-08-20T11:34:18;3.15;;;2.90;;
62258;SDS011;48241;48.824;10.102;2022-08-20T11:36:44;3.17;;;2.80;;
62258;SDS011;48241;48.824;10.102;2022-08-20T11:39:11;2.90;;;2.70;;
62258;SDS011;48241;48.824;10.102;2022-08-20T11:41:37;4.32;;;2.40;;
62258;SDS011;48241;48.824;10.102;2022-08-20T11:44:03;3.47;;;2.40;;
62258;SDS011;48241;48.824;10.102;2022-08-20T11:46:29;2.92;;;2.58;;
62258;SDS011;48241;48.824;10.102;2022-08-20T11:48:56;2.00;;;1.20;;
62258;SDS011;48241;48.824;10.102;2022-08-20T11:51:22;2.33;;;1.00;;
62258;SDS011;48241;48.824;10.102;2022-08-20T11:53:48;9.38;;;2.40;;
62258;SDS011;48241;48.824;10.102;2022-08-20T11:56:13;8.02;;;2.20;;
62258;SDS011;48241;48.824;10.102;2022-08-20T11:58:40;6.00;;;2.25;;
62258;SDS011;48241;48.824;10.102;2022-08-20T12:01:06;5.70;;;2.50;;
62258;SDS011;48241;48.824;10.102;2022-08-20T12:03:32;4.72;;;2.42;;
62258;SDS011;48241;48.824;10.102;2022-08-20T12:06:05;4.70;;;2.53;;
62258;SDS011;48241;48.824;10.102;2022-08-20T12:08:31;4.20;;;2.72;;
62258;SDS011;48241;48.824;10.102;2022-08-20T12:10:58;3.97;;;2.53;;
62258;SDS011;48241;48.824;10.102;2022-08-20T12:13:26;5.10;;;2.72;;
62258;SDS011;48241;48.824;10.102;2022-08-20T12:15:54;3.97;;;2.33;;
62258;SDS011;48241;48.824;10.102;2022-08-20T12:18:20;4.30;;;2.47;;
62258;SDS011;48241;48.824;10.102;2022-08-20T12:20:46;4.15;;;2.53;;
62258;SDS011;48241;48.824;10.102;2022-08-20T12:23:11;5.18;;;2.65;;
62258;SDS011;48241;48.824;10.102;2022-08-20T12:25:37;3.40;;;2.63;;
62258;SDS011;48241;48.824;10.102;2022-08-20T12:28:03;4.65;;;3.10;;
62258;SDS011;48241;48.824;10.102;2022-08-20T12:30:29;3.92;;;3.00;;
62258;SDS011;48241;48.824;10.102;2022-08-20T12:32:56;7.30;;;3.70;;
62258;SDS011;48241;48.824;10.102;2022-08-20T12:35:21;4.40;;;3.08;;
62258;SDS011;48241;48.824;10.102;2022-08-20T12:37:47;5.43;;;3.97;;
62258;SDS011;48241;48.824;10.102;2022-08-20T12:40:15;6.05;;;4.50;;
62258;SDS011;48241;48.824;10.102;2022-08-20T12:42:43;6.28;;;4.57;;
62258;SDS011;48241;48.824;10.102;2022-08-20T12:45:09;5.00;;;4.50;;
62258;SDS011;48241;48.824;10.102;2022-08-20T12:47:36;5.40;;;4.13;;
62258;SDS011;48241;48.824;10.102;2022-08-20T12:50:05;4.50;;;4.10;;
62258;SDS011;48241;48.824;10.102;2022-08-20T12:52:34;4.45;;;3.85;;
62258;SDS011;48241;48.824;10.102;2022-08-20T12:55:00;5.40;;;4.60;;
62258;SDS011;48241;48.824;10.102;2022-08-20T12:59:52;5.57;;;4.93;;
62258;SDS011;48241;48.824;10.102;2022-08-20T13:02:23;5.05;;;4.65;;
62258;SDS011;48241;48.824;10.102;2022-08-20T13:04:49;5.28;;;4.72;;
62258;SDS011;48241;48.824;10.102;2022-08-20T13:07:14;5.78;;;5.28;;
62258;SDS011;48241;48.824;10.102;2022-08-20T13:09:41;6.63;;;5.93;;
62258;SDS011;48241;48.824;10.102;2022-08-20T13:12:07;6.35;;;5.85;;
62258;SDS011;48241;48.824;10.102;2022-08-20T13:14:34;6.25;;;5.60;;
62258;SDS011;48241;48.824;10.102;2022-08-20T13:17:00;6.07;;;5.57;;
62258;SDS011;48241;48.824;10.102;2022-08-20T13:19:27;5.35;;;4.85;;
62258;SDS011;48241;48.824;10.102;2022-08-20T13:21:54;4.40;;;4.00;;
62258;SDS011;48241;48.824;10.102;2022-08-20T13:24:20;4.82;;;3.70;;
62258;SDS011;48241;48.824;10.102;2022-08-20T13:26:46;4.07;;;3.78;;
62258;SDS011;48241;48.824;10.102;2022-08-20T13:29:11;3.20;;;2.70;;
62258;SDS011;48241;48.824;10.102;2022-08-20T13:31:38;2.38;;;1.40;;
62258;SDS011;48241;48.824;10.102;2022-08-20T13:34:04;0.95;;;0.70;;
62258;SDS011;48241;48.824;10.102;2022-08-20T13:36:30;0.77;;;0.50;;
62258;SDS011;48241;48.824;10.102;2022-08-20T13:38:56;2.17;;;0.60;;
62258;SDS011;48241;48.824;10.102;2022-08-20T13:41:21;0.90;;;0.68;;
62258;SDS011;48241;48.824;10.102;2022-08-20T13:43:47;0.80;;;0.80;;
62258;SDS011;48241;48.824;10.102;2022-08-20T13:46:13;0.80;;;0.80;;
62258;SDS011;48241;48.824;10.102;2022-08-20T13:48:38;0.63;;;0.50;;
62258;SDS011;48241;48.824;10.102;2022-08-20T13:51:04;0.60;;;0.60;;
62258;SDS011;48241;48.824;10.102;2022-08-20T13:53:30;1.52;;;0.80;;
62258;SDS011;48241;48.824;10.102;2022-08-20T13:55:56;1.27;;;1.20;;
62258;SDS011;48241;48.824;10.102;2022-08-20T13:58:21;2.05;;;1.85;;
62258;SDS011;48241;48.824;10.102;2022-08-20T14:00:47;2.80;;;1.80;;
62258;SDS011;48241;48.824;10.102;2022-08-20T14:03:13;2.00;;;1.80;;
62258;SDS011;48241;48.824;10.102;2022-08-20T14:05:39;2.83;;;1.80;;
62258;SDS011;48241;48.824;10.102;2022-08-20T14:10:35;2.10;;;1.90;;
62258;SDS011;48241;48.824;10.102;2022-08-20T14:13:02;2.90;;;1.88;;
62258;SDS011;48241;48.824;10.102;2022-08-20T14:15:30;2.10;;;1.90;;
62258;SDS011;48241;48.824;10.102;2022-08-20T14:17:56;2.65;;;1.70;;
62258;SDS011;48241;48.824;10.102;2022-08-20T14:20:23;3.22;;;1.98;;
62258;SDS011;48241;48.824;10.102;2022-08-20T14:22:51;3.13;;;1.88;;
62258;SDS011;48241;48.824;10.102;2022-08-20T14:25:17;2.00;;;1.90;;
62258;SDS011;48241;48.824;10.102;2022-08-20T14:27:45;1.98;;;1.88;;
62258;SDS011;48241;48.824;10.102;2022-08-20T14:30:12;2.88;;;1.98;;
62258;SDS011;48241;48.824;10.102;2022-08-20T14:32:41;2.33;;;2.13;;
62258;SDS011;48241;48.824;10.102;2022-08-20T14:35:07;2.83;;;2.55;;
62258;SDS011;48241;48.824;10.102;2022-08-20T14:37:34;3.05;;;2.75;;
62258;SDS011;48241;48.824;10.102;2022-08-20T14:40:04;4.35;;;3.50;;
62258;SDS011;48241;48.824;10.102;2022-08-20T14:42:32;3.47;;;3.17;;
62258;SDS011;48241;48.824;10.102;2022-08-20T14:44:59;3.25;;;3.05;;
62258;SDS011;48241;48.824;10.102;2022-08-20T14:47:33;4.30;;;3.90;;
62258;SDS011;48241;48.824;10.102;2022-08-20T14:50:01;4.22;;;3.58;;
62258;SDS011;48241;48.824;10.102;2022-08-20T14:52:30;4.28;;;3.83;;
62258;SDS011;48241;48.824;10.102;2022-08-20T14:55:00;3.53;;;3.25;;
62258;SDS011;48241;48.824;10.102;2022-08-20T14:57:30;3.40;;;3.10;;
62258;SDS011;48241;48.824;10.102;2022-08-20T14:59:57;3.55;;;3.25;;